Litchfield, MN

5:09 PM CST on January 21, 2017 (GMT -0600)
Litchfield | | Change Station
Active Advisory: Dense Fog Advisory

Elev 1138 ft 45.10 °N, 94.51 °W | Updated 16 minutes ago

Snow
Snow
36 °F
Feels Like 33 °F
N
4
Wind Variable Wind from NE

Today
High -- | Low -- °F
--% Chance of Precip.
Yesterday
High -- | Low -- °F
Precip. -- in
Pressure 29.45 in
Visibility 0.2 miles
Clouds Overcast 100 ft
Windchill 33 °F
Dew Point 36 °F
Humidity 100%
Rainfall 0.00 in
Snow Depth Not available.
7:48 AM 5:10 PM
Waning Crescent, 31% visible
METAR KLJF 212253Z AUTO 05003KT M1/4SM -SN OVC001 02/02 A2945 RMK AO2
Pressure 29.45 in
Visibility 0.2 miles
Clouds Overcast 100 ft
Windchill 33 °F
Dew Point 36 °F
Humidity 100%
Rainfall 0.00 in
Snow Depth Not available.
7:48 AM 5:10 PM
Waning Crescent, 31% visible
METAR KLJF 212253Z AUTO 05003KT M1/4SM -SN OVC001 02/02 A2945 RMK AO2

Get Your Daily Forecast Email!

Thanks for signing up!

Be on the lookout for a verification email in your inbox.

You'll start receiving the daily forecast at 8 AM.

×

10-Day Weather Forecast

Almanac

Astronomy

Jan. 21, 2017 Rise Set
Actual Time
Civil Twilight
Nautical Twilight
Astronomical Twilight
Moon
Length of Visible Light
Length of Day
Tomorrow will be .
, % of the Moon is Illuminated

Today's Extremes

State Highs State Lows

Community

WunderPhotos

Upload Photos

1,962,540 photos uploaded!

WunderBlog® & News

Nearby

Air Quality

  Air Quality AQ Index Pollutant
Not available.

Snow Depth

Station Depth Elevation

Earthquake Activity

City Distance Mag. Time & Date
Minimum magnitude displayed is 2.5.

Coastal Water Temperatures

Place Temperature

Stations

Nearby Weather Stations

Station Location Temp. Windchill Dew Point Humidity Wind Precip. Elev Updated Type
                   

Watches & Warnings

Dense Fog Advisory
Issued: 4:27 PM CST Jan. 21, 2017 – National Weather Service

... Dense fog advisory remains in effect until noon CST Sunday...

* visibility... areas of dense fog producing visibility one
quarter mile or less.

* Impacts... low visibilities will result in difficult driving
conditions.

Precautionary/preparedness actions...

A dense fog advisory means visibilities will frequently be
reduced to less than one quarter mile. If driving... slow down...
use your headlights... and leave plenty of distance ahead of you.